Hlavní strana
METAR-TAF:

METAR-TAF

Letiště :

Hemavan, Švédsko

zeměpisná šířka: 65-48-22N, zeměpisná délka: 015-04-58E, výška: 458 m

Aktuální stav počasí

Zpráva byla vytvořena před 19 minutami, v 17:50 UTC
Západní vítr 5 kt
Teplota -8°C
Vlhkost vzduchu 92%
Tlak 997 hPa
Viditelnost 10 km a více

METAR: ESUT 181750Z AUTO 28005KT 9999 ///////// M08/M09 Q0997

Čas: 19:09 (18:09 UTC)


TAF: chybějící

Stav a předpovědi počasí z více než 4 000 letišť (zprávy METAR a TAF).

Červené a žluté tečky na mapě představují dostupné meteorologické stanice.

Když kurzor umístíte na tečku, zobrazí se název stanice.

Pak kliknutím zobrazíte stav a předpověď počasí.

Chcete-li změnit mapu, kliknutím na zelené tlačítko se znaménkem +mapu přiblížíte, kliknutím na zelené tlačítko se znaménkem – mapu oddálíte a kliknutím na zelené šipky přejdete na sousední mapy.


METAR-TAF: